Time;durP1;ratioP1;P1;durP2;ratioP2;P2;SDS_P1;SDS_P2;PMS_P1;PMS_P2;Temp;Humidity;BMP_temperature;BMP_pressure;BME280_temperature;BME280_humidity;BME280_pressure;Samples;Min_cycle;Max_cycle;Signal;HPM_P1;HPM_P2
2022/01/19 00:00:30;;;;;;;;;;;;;;;4.66;78.92;102207.88;5070276;28;19970;-76
2022/01/19 00:02:55;;;;;;;;;;;;;;;4.62;78.61;102207.19;5052770;28;19924;-76
2022/01/19 00:05:21;;;;;;;;;;;;;;;4.64;78.79;102199.22;5070660;28;19979;-76
2022/01/19 00:07:46;;;;;;;;;;;;;;;4.72;77.80;102193.63;5071300;28;19997;-76
2022/01/19 00:10:16;;;;;;;;;;;;;;;4.73;78.06;102192.72;5070991;28;20215;-76
2022/01/19 00:12:43;;;;;;;;;;;;;;;4.74;77.80;102187.38;5071826;28;20094;-76
2022/01/19 00:15:08;;;;;;;;;;;;;;;4.72;77.44;102181.41;5053483;28;19975;-76
2022/01/19 00:17:34;;;;;;;;;;;;;;;4.71;78.03;102165.72;5054506;28;19924;-76
2022/01/19 00:19:59;;;;;;;;;;;;;;;4.71;77.90;102157.88;5073519;28;19924;-76
2022/01/19 00:22:24;;;;;;;;;;;;;;;4.70;78.58;102148.31;5071894;28;19940;-76
2022/01/19 00:24:49;;;;;;;;;;;;;;;4.73;78.36;102148.16;5053892;28;19922;-76
2022/01/19 00:27:14;;;;;;;;;;;;;;;4.75;78.24;102143.72;5070503;28;19917;-76
2022/01/19 00:29:40;;;;;;;;;;;;;;;4.75;78.25;102147.19;5069541;28;19943;-76
2022/01/19 00:32:05;;;;;;;;;;;;;;;4.73;78.28;102150.78;5069429;28;19924;-76
2022/01/19 00:34:30;;;;;;;;;;;;;;;4.71;77.87;102153.47;5052622;28;20220;-76
2022/01/19 00:36:55;;;;;;;;;;;;;;;4.72;76.98;102152.56;5070113;28;19921;-76
2022/01/19 00:39:23;;;;;;;;;;;;;;;4.70;77.08;102164.91;5071636;28;19921;-76
2022/01/19 00:41:48;;;;;;;;;;;;;;;4.72;76.58;102178.78;5070230;28;19928;-76
2022/01/19 00:44:13;;;;;;;;;;;;;;;4.71;77.08;102184.06;5070174;28;20361;-76
2022/01/19 00:46:38;;;;;;;;;;;;;;;4.75;76.92;102180.41;5071876;28;19917;-76
2022/01/19 00:49:04;;;;;;;;;;;;;;;4.72;76.73;102177.91;5054080;28;20289;-76
2022/01/19 00:51:29;;;;;;;;;;;;;;;4.74;76.83;102179.53;5071587;28;20467;-76
2022/01/19 00:53:55;;;;;;;;;;;;;;;4.74;77.02;102173.44;5071671;28;19947;-76
2022/01/19 00:56:20;;;;;;;;;;;;;;;4.69;77.13;102160.56;5069950;28;20439;-76
2022/01/19 00:58:45;;;;;;;;;;;;;;;4.64;77.35;102158.16;5070210;28;19917;-76
2022/01/19 01:01:10;;;;;;;;;;;;;;;4.64;77.13;102157.31;5069346;28;19920;-76
2022/01/19 01:03:35;;;;;;;;;;;;;;;4.71;77.64;102150.84;5045419;28;19927;-76
2022/01/19 01:06:01;;;;;;;;;;;;;;;4.72;76.91;102149.94;5075004;28;19925;-75
2022/01/19 01:08:26;;;;;;;;;;;;;;;4.71;77.55;102144.78;5070823;28;20360;-76
2022/01/19 01:10:51;;;;;;;;;;;;;;;4.73;77.51;102143.78;5051083;28;20012;-76
2022/01/19 01:15:25;;;;;;;;;;;;;;;4.69;77.61;102144.84;5068235;28;20202;-76
2022/01/19 01:16:30;;;;;;;;;;;;;;;4.67;77.39;102137.06;5061104;28;20435;-76
2022/01/19 01:18:55;;;;;;;;;;;;;;;4.69;77.44;102136.97;5069491;28;19927;-76
2022/01/19 01:21:20;;;;;;;;;;;;;;;4.71;77.99;102129.03;5049657;28;19920;-76
2022/01/19 01:23:45;;;;;;;;;;;;;;;4.71;77.99;102123.81;5070099;28;19921;-76
2022/01/19 01:26:11;;;;;;;;;;;;;;;4.72;78.16;102126.38;5073237;28;19923;-76
2022/01/19 01:28:36;;;;;;;;;;;;;;;4.67;77.83;102121.34;5077793;28;19917;-76
2022/01/19 01:31:01;;;;;;;;;;;;;;;4.72;77.43;102110.66;5076184;28;19940;-76
2022/01/19 01:33:26;;;;;;;;;;;;;;;4.74;77.71;102100.91;5070320;28;19920;-76
2022/01/19 01:35:52;;;;;;;;;;;;;;;4.74;76.38;102102.69;5051370;28;19936;-76
2022/01/19 01:38:17;;;;;;;;;;;;;;;4.81;75.84;102099.69;5050566;28;19928;-76
2022/01/19 01:40:42;;;;;;;;;;;;;;;4.76;76.05;102100.84;5069503;28;19986;-76
2022/01/19 01:43:08;;;;;;;;;;;;;;;4.72;76.48;102104.53;5070379;28;19935;-76
2022/01/19 01:45:37;;;;;;;;;;;;;;;4.67;75.89;102121.34;5073495;28;19955;-76
2022/01/19 01:48:13;;;;;;;;;;;;;;;4.61;76.50;102128.66;5072786;28;19916;-76
2022/01/19 01:53:27;;;;;;;;;;;;;;;4.66;75.97;102121.41;5073795;28;19924;-76
2022/01/19 01:56:00;;;;;;;;;;;;;;;4.67;76.45;102113.50;5073527;28;20015;-76
2022/01/19 01:58:26;;;;;;;;;;;;;;;4.66;76.62;102110.94;5073279;28;20037;-76
2022/01/19 02:00:52;;;;;;;;;;;;;;;4.62;76.24;102102.38;5071585;28;19920;-76
2022/01/19 02:03:17;;;;;;;;;;;;;;;4.58;76.46;102097.38;5073450;28;20461;-76
2022/01/19 02:06:04;;;;;;;;;;;;;;;4.63;76.63;102090.97;5056361;28;20336;-76
2022/01/19 02:08:36;;;;;;;;;;;;;;;4.65;75.78;102083.03;5074517;28;19927;-76
2022/01/19 02:16:29;;;;;;;;;;;;;;;4.50;75.69;102074.13;5076721;28;20410;-76
2022/01/19 02:24:12;;;;;;;;;;;;;;;4.52;76.07;102055.72;5072472;28;19963;-76
2022/01/19 02:30:28;;;;;;;;;;;;;;;4.48;75.72;102039.31;5072697;28;19930;-76
2022/01/19 02:40:15;;;;;;;;;;;;;;;4.39;74.22;102013.59;5063703;28;19978;-76
2022/01/19 02:42:53;;;;;;;;;;;;;;;4.35;74.28;102005.03;5072381;28;20012;-76
2022/01/19 02:50:32;;;;;;;;;;;;;;;4.16;74.79;101997.22;5065864;28;19927;-76
2022/01/19 02:52:58;;;;;;;;;;;;;;;4.08;75.24;101999.38;5071673;28;19927;-76
2022/01/19 02:55:23;;;;;;;;;;;;;;;3.98;75.12;102001.56;5071721;28;19925;-76
2022/01/19 02:57:49;;;;;;;;;;;;;;;3.89;75.87;102004.63;5071580;28;19928;-76
2022/01/19 03:11:09;;;;;;;;;;;;;;;3.54;76.08;101975.72;5071836;28;19925;-76
2022/01/19 03:13:35;;;;;;;;;;;;;;;3.44;77.13;101974.44;5072107;28;20391;-76
2022/01/19 03:16:00;;;;;;;;;;;;;;;3.40;76.60;101975.50;5053560;28;19916;-76
2022/01/19 03:18:25;;;;;;;;;;;;;;;3.38;76.70;101962.50;5052053;28;19920;-76
2022/01/19 03:20:50;;;;;;;;;;;;;;;3.30;76.97;101951.53;5071495;28;20400;-76
2022/01/19 03:23:20;;;;;;;;;;;;;;;3.23;77.90;101933.59;5075409;28;20022;-76
2022/01/19 03:25:46;;;;;;;;;;;;;;;3.23;77.08;101926.59;5078780;28;19970;-76
2022/01/19 03:28:12;;;;;;;;;;;;;;;3.21;77.21;101914.50;5064607;28;19921;-76
2022/01/19 03:30:37;;;;;;;;;;;;;;;3.18;77.21;101898.03;5069691;28;19927;-76
2022/01/19 03:33:02;;;;;;;;;;;;;;;3.12;77.66;101890.50;5069965;28;19962;-76
2022/01/19 03:35:27;;;;;;;;;;;;;;;3.04;77.97;101879.53;5071452;28;20019;-76
2022/01/19 03:37:53;;;;;;;;;;;;;;;3.02;78.22;101868.31;5070896;28;20361;-76
2022/01/19 03:40:18;;;;;;;;;;;;;;;3.01;78.15;101863.16;5070930;28;20208;-76
2022/01/19 03:42:43;;;;;;;;;;;;;;;3.01;78.29;101856.16;5071711;28;19928;-76
2022/01/19 03:45:10;;;;;;;;;;;;;;;2.94;78.78;101844.31;5071403;28;19920;-75
2022/01/19 03:47:41;;;;;;;;;;;;;;;2.99;78.53;101831.88;5053011;28;19984;-76
2022/01/19 03:50:07;;;;;;;;;;;;;;;2.89;79.25;101814.94;5070773;28;19956;-75
2022/01/19 03:52:32;;;;;;;;;;;;;;;2.92;78.72;101806.94;5071608;28;19966;-75
2022/01/19 03:54:57;;;;;;;;;;;;;;;2.91;79.21;101786.97;5070595;28;19982;-76
2022/01/19 03:57:22;;;;;;;;;;;;;;;2.90;78.78;101782.66;5070841;28;20323;-75
2022/01/19 03:59:48;;;;;;;;;;;;;;;2.69;80.15;101781.88;5071126;28;19966;-76
2022/01/19 04:02:13;;;;;;;;;;;;;;;2.67;79.97;101771.50;5070205;28;19929;-76
2022/01/19 04:09:32;;;;;;;;;;;;;;;2.22;82.25;101777.03;5071355;28;19920;-75
2022/01/19 04:11:57;;;;;;;;;;;;;;;2.08;83.79;101773.25;5071113;28;19973;-75
2022/01/19 04:14:23;;;;;;;;;;;;;;;2.08;82.76;101775.00;5070713;28;19920;-75
2022/01/19 04:16:48;;;;;;;;;;;;;;;2.10;82.55;101763.59;5070659;28;19921;-75
2022/01/19 04:19:24;;;;;;;;;;;;;;;2.20;81.73;101765.81;5072320;28;19924;-76
2022/01/19 04:21:50;;;;;;;;;;;;;;;2.27;81.64;101770.69;5034897;28;20290;-75
2022/01/19 04:24:15;;;;;;;;;;;;;;;2.15;82.36;101778.22;5050415;28;20019;-75
2022/01/19 04:26:40;;;;;;;;;;;;;;;2.11;82.04;101773.09;5049831;28;20428;-75
2022/01/19 04:29:06;;;;;;;;;;;;;;;2.01;82.13;101763.16;5050222;28;19927;-76
2022/01/19 04:31:32;;;;;;;;;;;;;;;2.00;81.52;101762.31;5051019;28;19931;-75
2022/01/19 04:34:02;;;;;;;;;;;;;;;1.91;82.32;101760.09;5060223;28;20011;-76
2022/01/19 04:36:33;;;;;;;;;;;;;;;1.87;82.65;101750.69;5050798;28;20328;-75
2022/01/19 05:03:43;;;;;;;;;;;;;;;0.99;85.82;101774.25;5049654;28;20016;-75
2022/01/19 05:05:50;;;;;;;;;;;;;;;0.91;86.11;101768.50;5038721;28;20241;-75
2022/01/19 05:09:06;;;;;;;;;;;;;;;0.89;86.39;101765.94;5045880;28;19928;-75
2022/01/19 05:13:51;;;;;;;;;;;;;;;0.82;86.15;101770.53;5046873;28;20296;-76
2022/01/19 05:16:19;;;;;;;;;;;;;;;0.83;88.78;101764.44;5048090;28;19921;-75
2022/01/19 05:18:44;;;;;;;;;;;;;;;0.84;88.02;101773.09;5049403;28;19925;-75
2022/01/19 05:21:09;;;;;;;;;;;;;;;0.87;85.08;101772.13;5048766;28;20008;-75
2022/01/19 05:23:34;;;;;;;;;;;;;;;0.88;84.42;101774.66;5048115;28;19925;-76
2022/01/19 05:25:59;;;;;;;;;;;;;;;0.89;84.31;101773.75;5049252;28;19924;-75
2022/01/19 05:28:25;;;;;;;;;;;;;;;0.86;86.02;101766.06;5046803;28;19921;-75
2022/01/19 05:30:50;;;;;;;;;;;;;;;0.87;84.70;101765.16;5049246;28;19921;-75
2022/01/19 05:33:15;;;;;;;;;;;;;;;0.77;86.08;101763.81;5049632;28;19921;-75
2022/01/19 05:35:40;;;;;;;;;;;;;;;0.75;85.53;101763.03;5049393;28;19924;-75
2022/01/19 05:38:06;;;;;;;;;;;;;;;0.73;85.72;101755.25;5030997;28;19920;-76
2022/01/19 05:40:31;;;;;;;;;;;;;;;0.71;86.27;101764.03;5049300;28;20265;-75
2022/01/19 05:42:56;;;;;;;;;;;;;;;0.62;86.93;101763.50;5048518;28;20472;-75
2022/01/19 05:45:22;;;;;;;;;;;;;;;0.57;87.58;101764.56;5045450;28;20387;-75
2022/01/19 05:47:48;;;;;;;;;;;;;;;0.44;87.74;101769.38;5028136;28;20369;-75
2022/01/19 05:50:13;;;;;;;;;;;;;;;0.23;89.04;101768.38;5049800;28;19917;-75
2022/01/19 05:52:38;;;;;;;;;;;;;;;0.17;89.40;101771.22;5049637;28;19925;-75
2022/01/19 05:55:04;;;;;;;;;;;;;;;0.20;89.41;101777.16;5031708;28;19917;-75
2022/01/19 05:57:29;;;;;;;;;;;;;;;0.27;86.70;101769.97;5031682;28;19916;-75
2022/01/19 05:59:54;;;;;;;;;;;;;;;0.25;87.82;101763.97;5049473;28;19948;-75
2022/01/19 06:02:19;;;;;;;;;;;;;;;0.20;88.82;101761.53;5030836;28;20100;-75
2022/01/19 06:04:45;;;;;;;;;;;;;;;0.23;86.95;101757.97;5049960;28;19944;-75
2022/01/19 06:07:11;;;;;;;;;;;;;;;0.23;86.23;101763.19;5050273;28;19917;-75
2022/01/19 06:09:49;;;;;;;;;;;;;;;0.16;88.38;101759.09;5051394;28;19970;-75
2022/01/19 06:12:15;;;;;;;;;;;;;;;0.13;88.58;101760.06;5041956;28;19921;-75
2022/01/19 06:14:41;;;;;;;;;;;;;;;0.13;87.57;101754.88;5050418;28;19966;-75
2022/01/19 06:17:08;;;;;;;;;;;;;;;0.11;87.35;101751.47;5031802;28;19921;-76
2022/01/19 06:19:33;;;;;;;;;;;;;;;0.08;90.45;101750.75;5046344;28;20416;-75
2022/01/19 06:21:58;;;;;;;;;;;;;;;0.09;89.73;101749.81;5049499;28;20251;-75
2022/01/19 06:24:23;;;;;;;;;;;;;;;0.08;88.45;101738.56;5049215;28;20289;-75
2022/01/19 06:26:49;;;;;;;;;;;;;;;0.06;89.51;101739.53;5031750;28;19921;-76
2022/01/19 06:29:14;;;;;;;;;;;;;;;0.08;87.26;101735.97;5051597;28;19920;-76
2022/01/19 06:31:39;;;;;;;;;;;;;;;0.02;90.56;101732.75;5054299;28;19959;-76
2022/01/19 06:34:04;;;;;;;;;;;;;;;-0.01;89.89;101733.69;5054034;28;19925;-76
2022/01/19 06:36:30;;;;;;;;;;;;;;;-0.01;89.56;101724.13;5053411;28;19959;-76
2022/01/19 06:38:55;;;;;;;;;;;;;;;-0.03;88.80;101722.50;5053410;28;19917;-75
2022/01/19 06:41:20;;;;;;;;;;;;;;;-0.05;91.52;101719.09;5053212;28;19917;-76
2022/01/19 06:43:45;;;;;;;;;;;;;;;-0.04;91.22;101715.63;5034877;28;19960;-76
2022/01/19 06:46:10;;;;;;;;;;;;;;;-0.12;90.84;101715.88;5052226;28;20392;-76
2022/01/19 06:48:36;;;;;;;;;;;;;;;-0.14;88.99;101720.28;5052626;28;20809;-76
2022/01/19 06:51:01;;;;;;;;;;;;;;;-0.13;89.20;101710.72;5053076;28;19916;-76
2022/01/19 06:53:26;;;;;;;;;;;;;;;-0.17;88.22;101704.78;5051417;28;20353;-76
2022/01/19 06:55:52;;;;;;;;;;;;;;;-0.23;90.63;101703.25;5052210;28;20000;-76
2022/01/19 06:58:17;;;;;;;;;;;;;;;-0.24;89.88;101698.09;5051910;28;20333;-76
2022/01/19 07:00:42;;;;;;;;;;;;;;;-0.18;87.92;101697.06;5051953;28;19920;-75
2022/01/19 07:03:08;;;;;;;;;;;;;;;-0.17;90.54;101696.13;5052243;28;19925;-76
2022/01/19 07:05:34;;;;;;;;;;;;;;;-0.15;90.97;101702.97;5051266;28;19948;-76
2022/01/19 07:07:59;;;;;;;;;;;;;;;-0.28;91.29;101696.53;5033964;28;19921;-76
2022/01/19 07:10:24;;;;;;;;;;;;;;;-0.42;90.87;101697.00;5052164;28;19928;-76
2022/01/19 07:12:50;;;;;;;;;;;;;;;-0.45;92.09;101699.72;5051836;28;19967;-76
2022/01/19 07:15:15;;;;;;;;;;;;;;;-0.41;92.76;101688.28;5050854;28;20481;-76
2022/01/19 07:17:41;;;;;;;;;;;;;;;-0.39;92.82;101688.25;5033497;28;19921;-76
2022/01/19 07:20:06;;;;;;;;;;;;;;;-0.38;93.41;101679.53;5051578;28;20043;-76
2022/01/19 07:22:32;;;;;;;;;;;;;;;-0.32;92.13;101681.94;5050806;28;20003;-76
2022/01/19 07:24:59;;;;;;;;;;;;;;;-0.29;93.12;101682.66;5051372;28;19973;-75
2022/01/19 07:27:24;;;;;;;;;;;;;;;-0.27;92.72;101678.25;5051636;28;19979;-76
2022/01/19 07:29:49;;;;;;;;;;;;;;;-0.28;91.26;101673.97;5051639;28;20381;-76
2022/01/19 07:32:14;;;;;;;;;;;;;;;-0.24;93.62;101672.09;5051164;28;19924;-76
2022/01/19 07:34:40;;;;;;;;;;;;;;;-0.24;93.24;101678.19;5050687;28;19943;-76
2022/01/19 07:37:05;;;;;;;;;;;;;;;-0.34;91.83;101678.53;5051610;28;19921;-76
2022/01/19 07:39:30;;;;;;;;;;;;;;;-0.41;92.76;101674.44;5033456;28;19928;-76
2022/01/19 07:41:55;;;;;;;;;;;;;;;-0.35;92.39;101677.69;5050721;28;19932;-76
2022/01/19 07:44:21;;;;;;;;;;;;;;;-0.32;90.56;101669.78;5050973;28;19929;-76
2022/01/19 07:46:48;;;;;;;;;;;;;;;-0.27;93.48;101673.06;5051267;28;19921;-76
2022/01/19 07:49:13;;;;;;;;;;;;;;;-0.38;92.47;101672.63;5043096;28;19927;-76
2022/01/19 07:51:38;;;;;;;;;;;;;;;-0.40;92.40;101686.56;5047951;28;20336;-77
2022/01/19 07:54:03;;;;;;;;;;;;;;;-0.45;92.52;101671.97;5051286;28;19923;-77
2022/01/19 07:56:29;;;;;;;;;;;;;;;-0.39;92.08;101677.84;5050569;28;19921;-76
2022/01/19 07:58:54;;;;;;;;;;;;;;;-0.28;93.76;101675.72;5029383;28;19932;-77
2022/01/19 08:01:22;;;;;;;;;;;;;;;-0.14;94.71;101683.03;5048385;28;19998;-77
2022/01/19 08:03:47;;;;;;;;;;;;;;;-0.10;93.82;101684.63;5054791;28;19942;-76
2022/01/19 08:06:13;;;;;;;;;;;;;;;-0.04;92.43;101684.41;5053679;28;20351;-76
2022/01/19 08:08:38;;;;;;;;;;;;;;;0.00;93.19;101680.81;5052061;28;19947;-77
2022/01/19 08:11:03;;;;;;;;;;;;;;;0.05;92.42;101678.88;5050985;28;19920;-77
2022/01/19 08:13:29;;;;;;;;;;;;;;;0.11;92.96;101681.25;5054756;28;19967;-77
2022/01/19 08:15:54;;;;;;;;;;;;;;;0.19;93.33;101687.03;5050164;28;19947;-77
2022/01/19 08:18:19;;;;;;;;;;;;;;;0.27;92.12;101684.13;5050527;28;19921;-77
2022/01/19 08:20:44;;;;;;;;;;;;;;;0.42;90.78;101683.53;5051453;28;19968;-77
2022/01/19 08:23:10;;;;;;;;;;;;;;;0.59;90.33;101671.66;5054678;28;19925;-77
2022/01/19 08:25:36;;;;;;;;;;;;;;;0.70;90.71;101671.25;5035417;28;19996;-77
2022/01/19 08:28:01;;;;;;;;;;;;;;;0.75;90.91;101672.75;5049971;28;19929;-75
2022/01/19 08:30:26;;;;;;;;;;;;;;;0.94;89.89;101672.03;5050840;28;20421;-75
2022/01/19 08:32:51;;;;;;;;;;;;;;;1.13;89.20;101674.72;5050503;28;20301;-75
2022/01/19 08:35:17;;;;;;;;;;;;;;;1.22;89.10;101664.78;5050630;28;19928;-75
2022/01/19 08:37:42;;;;;;;;;;;;;;;1.34;88.38;101653.00;5031275;28;19921;-75
2022/01/19 08:40:08;;;;;;;;;;;;;;;1.42;88.24;101660.47;5049555;28;19951;-76
2022/01/19 08:42:33;;;;;;;;;;;;;;;1.53;88.40;101658.28;5053512;28;19939;-75
2022/01/19 08:45:04;;;;;;;;;;;;;;;1.62;87.73;101659.63;5032166;28;19920;-75
2022/01/19 08:47:30;;;;;;;;;;;;;;;1.66;87.38;101658.59;5049515;28;19951;-75
2022/01/19 08:49:55;;;;;;;;;;;;;;;1.76;86.86;101659.88;5052987;28;20012;-75
2022/01/19 08:52:21;;;;;;;;;;;;;;;1.81;87.29;101662.28;5046170;28;19928;-75
2022/01/19 08:54:47;;;;;;;;;;;;;;;1.89;87.14;101661.03;5053864;28;19995;-75
2022/01/19 08:57:12;;;;;;;;;;;;;;;1.98;86.85;101667.63;5052439;28;19939;-75
2022/01/19 08:59:38;;;;;;;;;;;;;;;2.15;86.15;101660.78;5048502;28;19928;-75
2022/01/19 09:02:03;;;;;;;;;;;;;;;2.19;85.89;101654.50;5050166;28;20412;-75
2022/01/19 09:04:29;;;;;;;;;;;;;;;2.26;85.20;101653.28;5049674;28;19964;-75
2022/01/19 09:06:55;;;;;;;;;;;;;;;2.37;84.93;101658.88;5050947;28;19968;-75
2022/01/19 09:09:20;;;;;;;;;;;;;;;2.44;84.26;101662.06;5049822;28;20020;-75
2022/01/19 09:11:46;;;;;;;;;;;;;;;2.42;84.32;101659.50;5030878;28;20015;-76
2022/01/19 09:14:11;;;;;;;;;;;;;;;2.55;84.00;101665.00;5030802;28;19996;-77
2022/01/19 09:16:37;;;;;;;;;;;;;;;2.53;83.56;101657.25;5056445;28;19964;-77
2022/01/19 09:19:03;;;;;;;;;;;;;;;2.64;84.04;101656.72;5049399;28;19921;-77
2022/01/19 09:21:28;;;;;;;;;;;;;;;2.76;83.20;101658.78;5049849;28;19951;-76
2022/01/19 09:23:53;;;;;;;;;;;;;;;2.84;82.71;101660.19;5049062;28;20420;-76
2022/01/19 09:26:19;;;;;;;;;;;;;;;2.88;82.46;101659.09;5048746;28;19924;-76
2022/01/19 09:28:44;;;;;;;;;;;;;;;2.93;82.34;101647.50;5031704;28;19928;-76
2022/01/19 09:31:12;;;;;;;;;;;;;;;2.96;82.14;101649.13;5049291;28;19921;-76
2022/01/19 09:33:37;;;;;;;;;;;;;;;3.03;82.02;101641.81;5030144;28;19927;-76
2022/01/19 09:38:29;;;;;;;;;;;;;;;3.09;80.96;101636.28;5048492;28;19925;-76
2022/01/19 09:40:55;;;;;;;;;;;;;;;3.08;80.70;101637.22;5052320;28;19928;-77
2022/01/19 09:43:23;;;;;;;;;;;;;;;3.16;80.81;101628.06;5047986;28;19924;-76
2022/01/19 09:45:49;;;;;;;;;;;;;;;3.18;80.22;101614.94;5047983;28;19974;-76
2022/01/19 09:48:15;;;;;;;;;;;;;;;3.14;80.48;101603.75;5044999;28;19991;-76
2022/01/19 09:50:40;;;;;;;;;;;;;;;3.24;80.01;101606.75;5031369;28;20393;-77
2022/01/19 09:53:06;;;;;;;;;;;;;;;3.24;80.12;101605.91;5050575;28;19920;-76
2022/01/19 09:55:31;;;;;;;;;;;;;;;3.39;80.47;101610.38;5049540;28;20290;-76
2022/01/19 09:57:56;;;;;;;;;;;;;;;3.53;79.85;101613.13;5048677;28;19999;-76
2022/01/19 10:00:22;;;;;;;;;;;;;;;3.68;79.62;101616.72;5049777;28;20023;-77
2022/01/19 10:03:07;;;;;;;;;;;;;;;3.74;79.39;101616.41;5049230;28;20024;-76
2022/01/19 10:05:33;;;;;;;;;;;;;;;3.82;78.38;101608.97;5037256;28;19932;-76
2022/01/19 10:07:59;;;;;;;;;;;;;;;3.87;78.96;101615.75;5056486;28;20459;-76
2022/01/19 10:10:24;;;;;;;;;;;;;;;3.93;78.34;101618.88;5052717;28;19925;-77
2022/01/19 10:18:25;;;;;;;;;;;;;;;4.01;77.70;101608.84;5048406;28;19927;-76
2022/01/19 10:21:04;;;;;;;;;;;;;;;3.98;78.20;101593.31;5053337;28;19932;-76
2022/01/19 10:23:33;;;;;;;;;;;;;;;3.88;77.73;101592.09;5053396;28;19932;-76
2022/01/19 10:25:59;;;;;;;;;;;;;;;4.06;77.75;101592.88;5052528;28;19928;-76
2022/01/19 10:28:24;;;;;;;;;;;;;;;3.93;78.04;101597.09;5053390;28;19921;-76
2022/01/19 10:30:50;;;;;;;;;;;;;;;3.95;78.52;101600.47;5035375;28;19972;-75
2022/01/19 10:33:16;;;;;;;;;;;;;;;3.97;77.36;101596.84;5058655;28;19935;-76
2022/01/19 10:35:41;;;;;;;;;;;;;;;3.87;78.03;101590.41;5044089;28;19920;-77
2022/01/19 10:38:33;;;;;;;;;;;;;;;3.95;77.84;101588.22;5055740;28;19943;-76
2022/01/19 10:40:58;;;;;;;;;;;;;;;3.94;78.45;101585.69;5049271;28;19929;-77
2022/01/19 10:43:26;;;;;;;;;;;;;;;3.95;78.57;101588.22;5052559;28;20397;-76
2022/01/19 10:45:52;;;;;;;;;;;;;;;4.04;78.10;101576.41;5036880;28;19925;-77
2022/01/19 10:48:29;;;;;;;;;;;;;;;4.11;78.31;101572.53;5052068;28;19990;-76
2022/01/19 10:51:04;;;;;;;;;;;;;;;4.18;77.75;101565.19;5059980;28;20023;-76
2022/01/19 10:53:30;;;;;;;;;;;;;;;4.35;77.29;101562.47;5049735;28;19927;-76
2022/01/19 10:55:55;;;;;;;;;;;;;;;4.36;77.38;101558.06;5057437;28;20383;-77
2022/01/19 10:58:21;;;;;;;;;;;;;;;4.29;77.56;101554.97;5051136;28;20259;-76
2022/01/19 11:00:50;;;;;;;;;;;;;;;4.33;77.50;101553.00;5030534;28;20885;-76
2022/01/19 11:03:20;;;;;;;;;;;;;;;4.29;77.68;101559.34;5050465;28;19931;-76
2022/01/19 11:05:45;;;;;;;;;;;;;;;4.24;77.89;101551.75;5051523;28;20267;-76
2022/01/19 11:08:11;;;;;;;;;;;;;;;4.25;77.81;101546.44;5049321;28;19921;-76
2022/01/19 11:10:37;;;;;;;;;;;;;;;4.25;77.63;101548.22;5051271;28;19927;-76
2022/01/19 11:13:05;;;;;;;;;;;;;;;4.26;78.10;101544.66;5051113;28;20378;-76
2022/01/19 11:15:30;;;;;;;;;;;;;;;4.28;77.67;101541.97;5047270;28;19946;-76
2022/01/19 11:17:55;;;;;;;;;;;;;;;4.21;77.86;101533.59;5033005;28;20023;-76
2022/01/19 11:20:26;;;;;;;;;;;;;;;4.26;77.94;101532.41;5034240;28;19932;-77
2022/01/19 11:23:10;;;;;;;;;;;;;;;4.22;77.02;101519.59;5055938;28;19925;-77
2022/01/19 11:25:35;;;;;;;;;;;;;;;4.22;77.22;101516.97;5056805;28;19932;-77
2022/01/19 11:28:00;;;;;;;;;;;;;;;4.19;77.70;101511.91;5050153;28;19920;-77
2022/01/19 11:30:31;;;;;;;;;;;;;;;4.18;77.80;101507.59;5070517;28;19927;-77
2022/01/19 11:33:14;;;;;;;;;;;;;;;4.18;77.42;101512.84;5069935;28;19955;-77
2022/01/19 11:35:41;;;;;;;;;;;;;;;4.12;77.70;101508.78;5066515;28;19954;-77
2022/01/19 11:38:25;;;;;;;;;;;;;;;4.09;78.45;101502.88;5069631;28;19920;-77
2022/01/19 11:40:50;;;;;;;;;;;;;;;4.10;78.53;101504.56;5070678;28;19987;-77
2022/01/19 11:43:17;;;;;;;;;;;;;;;4.07;78.45;101508.19;5070230;28;19924;-77
2022/01/19 11:45:42;;;;;;;;;;;;;;;4.14;78.51;101513.94;5071368;28;19927;-75
2022/01/19 11:48:13;;;;;;;;;;;;;;;4.08;77.93;101517.75;5070719;28;19920;-75
2022/01/19 11:50:38;;;;;;;;;;;;;;;3.97;78.78;101514.88;5069121;28;19943;-76
2022/01/19 11:53:09;;;;;;;;;;;;;;;4.00;78.58;101504.22;5071359;28;19924;-76
2022/01/19 11:55:34;;;;;;;;;;;;;;;3.89;79.74;101510.06;5072261;28;19920;-76
2022/01/19 11:58:20;;;;;;;;;;;;;;;3.91;79.86;101495.13;5070678;28;20062;-76
2022/01/19 12:00:47;;;;;;;;;;;;;;;3.87;80.35;101496.22;5046339;28;19925;-76
2022/01/19 12:03:32;;;;;;;;;;;;;;;3.78;80.69;101486.25;5050256;28;19947;-76
2022/01/19 12:05:58;;;;;;;;;;;;;;;3.80;80.12;101481.78;5050464;28;19917;-76
2022/01/19 12:08:23;;;;;;;;;;;;;;;3.79;80.28;101470.50;5051567;28;19928;-76
2022/01/19 12:10:49;;;;;;;;;;;;;;;3.83;80.59;101468.53;5052583;28;20328;-76
2022/01/19 12:13:25;;;;;;;;;;;;;;;3.75;81.06;101460.28;5043749;28;20243;-76
2022/01/19 12:16:01;;;;;;;;;;;;;;;3.72;81.34;101455.19;5050440;28;19921;-76
2022/01/19 12:18:36;;;;;;;;;;;;;;;3.76;81.21;101452.31;5051655;28;19921;-76
2022/01/19 12:21:01;;;;;;;;;;;;;;;3.83;81.46;101443.22;5070242;28;19927;-77
2022/01/19 12:23:27;;;;;;;;;;;;;;;3.63;82.27;101450.50;5069586;28;19924;-76
2022/01/19 12:25:56;;;;;;;;;;;;;;;3.74;82.21;101448.13;5069506;28;20373;-76
2022/01/19 12:28:41;;;;;;;;;;;;;;;3.71;82.09;101448.28;5064744;28;19928;-76
2022/01/19 12:31:24;;;;;;;;;;;;;;;3.82;81.67;101456.41;5070243;28;19927;-76
2022/01/19 12:34:02;;;;;;;;;;;;;;;3.74;82.19;101433.28;5067008;28;19927;-76
2022/01/19 12:36:44;;;;;;;;;;;;;;;3.79;82.22;101433.88;5069212;28;20377;-76
2022/01/19 12:39:29;;;;;;;;;;;;;;;3.83;81.94;101426.69;5068996;28;19992;-76
2022/01/19 12:41:58;;;;;;;;;;;;;;;3.86;81.87;101416.03;5048879;28;19925;-76
2022/01/19 12:44:44;;;;;;;;;;;;;;;3.91;81.57;101414.03;5067925;28;19920;-76
2022/01/19 12:47:24;;;;;;;;;;;;;;;3.88;81.79;101402.88;5068208;28;19920;-76
2022/01/19 12:49:52;;;;;;;;;;;;;;;3.88;81.90;101403.72;5068921;28;19916;-76
2022/01/19 12:52:19;;;;;;;;;;;;;;;3.85;81.89;101401.28;5064644;28;19925;-76
2022/01/19 12:54:44;;;;;;;;;;;;;;;3.94;81.80;101403.38;5069076;28;20301;-76
2022/01/19 12:57:15;;;;;;;;;;;;;;;3.90;81.71;101395.78;5068094;28;20182;-76
2022/01/19 12:59:41;;;;;;;;;;;;;;;3.93;81.48;101392.97;5069392;28;20399;-76
2022/01/19 13:02:06;;;;;;;;;;;;;;;3.70;82.03;101394.31;5050953;28;20380;-76
2022/01/19 13:04:32;;;;;;;;;;;;;;;3.55;82.35;101395.97;5070207;28;19920;-76
2022/01/19 13:07:19;;;;;;;;;;;;;;;3.63;82.05;101395.56;5068970;28;19948;-76
2022/01/19 13:12:38;;;;;;;;;;;;;;;3.83;81.16;101390.88;5052698;28;19998;-76
2022/01/19 13:15:03;;;;;;;;;;;;;;;3.84;81.08;101386.53;5030255;28;19971;-76
2022/01/19 13:17:42;;;;;;;;;;;;;;;3.88;81.03;101384.56;5049914;28;19921;-75
2022/01/19 13:20:09;;;;;;;;;;;;;;;3.86;81.01;101387.25;5047977;28;19955;-76
2022/01/19 13:22:42;;;;;;;;;;;;;;;3.85;80.98;101395.19;5048703;28;19925;-77
2022/01/19 13:25:13;;;;;;;;;;;;;;;3.78;80.64;101387.69;5048181;28;20328;-76
2022/01/19 13:27:41;;;;;;;;;;;;;;;3.84;80.90;101378.66;5045598;28;20168;-76
2022/01/19 13:30:10;;;;;;;;;;;;;;;3.83;80.84;101375.19;5030402;28;19921;-76
2022/01/19 13:32:38;;;;;;;;;;;;;;;3.88;80.07;101374.94;5049805;28;19932;-76
2022/01/19 13:35:04;;;;;;;;;;;;;;;3.91;79.78;101379.13;5048532;28;20164;-76
2022/01/19 13:37:31;;;;;;;;;;;;;;;3.87;80.57;101373.25;5027697;28;19929;-76
2022/01/19 13:39:58;;;;;;;;;;;;;;;3.75;81.85;101371.34;5053811;28;20281;-76
2022/01/19 13:42:30;;;;;;;;;;;;;;;3.82;81.01;101363.06;5050946;28;19921;-76
2022/01/19 13:44:55;;;;;;;;;;;;;;;3.88;80.92;101367.06;5053557;28;20300;-77
2022/01/19 13:47:29;;;;;;;;;;;;;;;3.93;81.07;101364.19;5051143;28;19925;-76
2022/01/19 13:49:54;;;;;;;;;;;;;;;3.95;81.19;101351.88;5051753;28;20447;-76
2022/01/19 13:52:20;;;;;;;;;;;;;;;3.94;81.63;101352.81;5052272;28;19968;-77
2022/01/19 13:54:46;;;;;;;;;;;;;;;3.97;81.39;101343.00;5053452;28;19921;-76
2022/01/19 13:57:11;;;;;;;;;;;;;;;3.93;81.35;101356.34;5050545;28;19943;-76
2022/01/19 13:59:36;;;;;;;;;;;;;;;3.93;81.10;101349.38;5053370;28;19917;-76
2022/01/19 14:02:11;;;;;;;;;;;;;;;3.95;80.92;101351.88;5052070;28;19925;-76
2022/01/19 14:04:36;;;;;;;;;;;;;;;3.83;81.49;101349.03;5059534;28;20286;-76
2022/01/19 14:07:06;;;;;;;;;;;;;;;3.88;81.50;101351.38;5042105;28;19920;-76
2022/01/19 14:09:33;;;;;;;;;;;;;;;3.79;81.61;101330.97;5053943;28;19971;-76